Portada
METAR-TAF:

METAR-TAF

Aeroports :

Ghardaïa, Algèria

latitud: 32-23N, longitud: 003-49E, altitud: 450 m

Observació

L'informe es va fer fa 1 hora i 8 minuts, a les 12:00 UTC
Vent calma
Temperatura 19°C
Humitat 26%
Pressió 1024 hPa
Visibilitat 10 km o més
sense núvols per sota de 1500 mi sense presència de cumulonimbus.

METAR: DAUG 111200Z 00000KT CAVOK 19/M01 Q1024

Hora: 14:08 (13:08 UTC)

Pronòstic

L'informe es va fer fa 2 hores i 8 minuts, a les 11:00 UTC
Pronòstic vàlid del 11 a les 12 UTC al 12 a les 12 UTC
Vent 2 kt amb direcció variable
Visibilitat 10 km o més
sense núvols per sota de 1500 mi sense presència de cumulonimbus.

TAF: DAUG 111100Z 1112/1212 VRB02KT CAVOK

Observacions i pronòstics meteorològics de més de 4000 aeroports (METAR i TAF).

Les estacions disponibles són els punts grocs i vermells al mapa.

Posi el ratolí al punt desitjat per veure el nom de l'estació.

Feu clic per veure les observacions i els pronòstics meteorològics.

Per canviar el mapa: feu clic els botons verds amb una creu de color negre per apropar; al botó verd amb un guió per allunyar la imatge; o en les fletxes verdes per a mapes adjacents.


METAR-TAF: